sensor_id;sensor_type;location;lat;lon;timestamp;pressure;altitude;pressure_sealevel;temperature;humidity
65758;BME280;52495;52.208;5.158;2023-12-20T00:02:14;101438.28;;;6.89;100.00
65758;BME280;52495;52.208;5.158;2023-12-20T00:04:42;101434.03;;;6.91;100.00
65758;BME280;52495;52.208;5.158;2023-12-20T00:07:09;101422.03;;;6.88;100.00
65758;BME280;52495;52.208;5.158;2023-12-20T00:09:35;101436.59;;;6.89;100.00
65758;BME280;52495;52.208;5.158;2023-12-20T00:12:02;101441.63;;;6.80;100.00
65758;BME280;52495;52.208;5.158;2023-12-20T00:14:29;101437.38;;;6.80;100.00
65758;BME280;52495;52.208;5.158;2023-12-20T00:16:56;101424.50;;;6.79;100.00
65758;BME280;52495;52.208;5.158;2023-12-20T00:19:22;101415.09;;;6.78;100.00
65758;BME280;52495;52.208;5.158;2023-12-20T00:21:51;101412.50;;;6.73;100.00
65758;BME280;52495;52.208;5.158;2023-12-20T00:24:17;101410.81;;;6.74;100.00
65758;BME280;52495;52.208;5.158;2023-12-20T00:26:44;101418.50;;;6.74;100.00
65758;BME280;52495;52.208;5.158;2023-12-20T00:29:11;101427.06;;;6.73;100.00
65758;BME280;52495;52.208;5.158;2023-12-20T00:31:38;101433.84;;;6.69;100.00
65758;BME280;52495;52.208;5.158;2023-12-20T00:34:04;101432.13;;;6.66;100.00
65758;BME280;52495;52.208;5.158;2023-12-20T00:36:31;101435.56;;;6.68;100.00
65758;BME280;52495;52.208;5.158;2023-12-20T00:38:59;101423.56;;;6.67;100.00
65758;BME280;52495;52.208;5.158;2023-12-20T00:41:26;101422.69;;;6.64;100.00
65758;BME280;52495;52.208;5.158;2023-12-20T00:43:52;101414.13;;;6.63;100.00
65758;BME280;52495;52.208;5.158;2023-12-20T00:46:19;101424.34;;;6.60;100.00
65758;BME280;52495;52.208;5.158;2023-12-20T00:48:46;101421.84;;;6.65;100.00
65758;BME280;52495;52.208;5.158;2023-12-20T00:51:13;101423.56;;;6.66;100.00
65758;BME280;52495;52.208;5.158;2023-12-20T00:53:42;101425.25;;;6.64;100.00
65758;BME280;52495;52.208;5.158;2023-12-20T00:56:10;101421.84;;;6.65;100.00
65758;BME280;52495;52.208;5.158;2023-12-20T00:58:37;101426.13;;;6.64;100.00
65758;BME280;52495;52.208;5.158;2023-12-20T01:01:03;101413.28;;;6.64;100.00
65758;BME280;52495;52.208;5.158;2023-12-20T01:03:30;101406.47;;;6.65;100.00
65758;BME280;52495;52.208;5.158;2023-12-20T01:05:56;101404.72;;;6.61;100.00
65758;BME280;52495;52.208;5.158;2023-12-20T01:08:22;101410.66;;;6.58;100.00
65758;BME280;52495;52.208;5.158;2023-12-20T01:10:49;101408.09;;;6.57;100.00
65758;BME280;52495;52.208;5.158;2023-12-20T01:13:17;101413.25;;;6.61;100.00
65758;BME280;52495;52.208;5.158;2023-12-20T01:15:44;101424.38;;;6.62;100.00
65758;BME280;52495;52.208;5.158;2023-12-20T01:18:11;101428.66;;;6.60;100.00
65758;BME280;52495;52.208;5.158;2023-12-20T01:20:37;101429.50;;;6.59;100.00
65758;BME280;52495;52.208;5.158;2023-12-20T01:23:04;101430.41;;;6.64;100.00
65758;BME280;52495;52.208;5.158;2023-12-20T01:25:31;101425.28;;;6.70;100.00
65758;BME280;52495;52.208;5.158;2023-12-20T01:27:57;101425.34;;;6.73;100.00
65758;BME280;52495;52.208;5.158;2023-12-20T01:30:25;101415.91;;;6.72;100.00
65758;BME280;52495;52.208;5.158;2023-12-20T01:32:52;101415.03;;;6.70;100.00
65758;BME280;52495;52.208;5.158;2023-12-20T01:35:19;101414.19;;;6.71;100.00
65758;BME280;52495;52.208;5.158;2023-12-20T01:37:46;101409.03;;;6.65;100.00
65758;BME280;52495;52.208;5.158;2023-12-20T01:40:13;101409.03;;;6.65;100.00
65758;BME280;52495;52.208;5.158;2023-12-20T01:42:40;101419.28;;;6.65;100.00
65758;BME280;52495;52.208;5.158;2023-12-20T01:45:08;101415.84;;;6.64;100.00
65758;BME280;52495;52.208;5.158;2023-12-20T01:47:36;101403.91;;;6.71;100.00
65758;BME280;52495;52.208;5.158;2023-12-20T01:50:05;101400.53;;;6.74;100.00
65758;BME280;52495;52.208;5.158;2023-12-20T01:52:34;101403.09;;;6.74;100.00
65758;BME280;52495;52.208;5.158;2023-12-20T01:55:01;101405.69;;;6.75;100.00
65758;BME280;52495;52.208;5.158;2023-12-20T01:57:30;101402.28;;;6.79;100.00
65758;BME280;52495;52.208;5.158;2023-12-20T01:59:57;101404.84;;;6.79;100.00
65758;BME280;52495;52.208;5.158;2023-12-20T02:02:26;101403.13;;;6.80;100.00
65758;BME280;52495;52.208;5.158;2023-12-20T02:04:55;101402.31;;;6.86;100.00
65758;BME280;52495;52.208;5.158;2023-12-20T02:07:22;101401.47;;;6.85;100.00
65758;BME280;52495;52.208;5.158;2023-12-20T02:09:50;101401.47;;;6.85;100.00
65758;BME280;52495;52.208;5.158;2023-12-20T02:12:16;101399.75;;;6.84;100.00
65758;BME280;52495;52.208;5.158;2023-12-20T02:14:43;101404.06;;;6.88;100.00
65758;BME280;52495;52.208;5.158;2023-12-20T02:17:10;101400.59;;;6.83;100.00
65758;BME280;52495;52.208;5.158;2023-12-20T02:19:37;101398.94;;;6.88;100.00
65758;BME280;52495;52.208;5.158;2023-12-20T02:22:07;101391.25;;;6.91;100.00
65758;BME280;52495;52.208;5.158;2023-12-20T02:24:34;101389.56;;;6.95;100.00
65758;BME280;52495;52.208;5.158;2023-12-20T02:27:01;101391.28;;;6.97;100.00
65758;BME280;52495;52.208;5.158;2023-12-20T02:29:28;101390.47;;;7.02;100.00
65758;BME280;52495;52.208;5.158;2023-12-20T02:31:54;101393.03;;;7.03;100.00
65758;BME280;52495;52.208;5.158;2023-12-20T02:34:21;101395.59;;;7.02;100.00
65758;BME280;52495;52.208;5.158;2023-12-20T02:36:48;101394.72;;;7.01;100.00
65758;BME280;52495;52.208;5.158;2023-12-20T02:39:16;101389.63;;;7.09;100.00
65758;BME280;52495;52.208;5.158;2023-12-20T02:41:43;101394.75;;;7.03;100.00
65758;BME280;52495;52.208;5.158;2023-12-20T02:44:10;101380.19;;;7.00;100.00
65758;BME280;52495;52.208;5.158;2023-12-20T02:46:37;101383.63;;;7.04;100.00
65758;BME280;52495;52.208;5.158;2023-12-20T02:49:03;101386.22;;;7.08;100.00
65758;BME280;52495;52.208;5.158;2023-12-20T02:51:30;101393.91;;;7.04;100.00
65758;BME280;52495;52.208;5.158;2023-12-20T02:53:57;101387.94;;;7.11;100.00
65758;BME280;52495;52.208;5.158;2023-12-20T02:56:25;101370.84;;;7.11;100.00
65758;BME280;52495;52.208;5.158;2023-12-20T02:58:51;101375.09;;;7.08;100.00
65758;BME280;52495;52.208;5.158;2023-12-20T03:01:18;101367.34;;;7.03;100.00
65758;BME280;52495;52.208;5.158;2023-12-20T03:03:45;101365.63;;;7.02;100.00
65758;BME280;52495;52.208;5.158;2023-12-20T03:06:15;101353.66;;;7.03;100.00
65758;BME280;52495;52.208;5.158;2023-12-20T03:08:42;101364.78;;;7.03;100.00
65758;BME280;52495;52.208;5.158;2023-12-20T03:11:09;101363.09;;;7.04;100.00
65758;BME280;52495;52.208;5.158;2023-12-20T03:13:37;101354.50;;;7.03;100.00
65758;BME280;52495;52.208;5.158;2023-12-20T03:16:08;101362.25;;;7.09;100.00
65758;BME280;52495;52.208;5.158;2023-12-20T03:18:35;101352.84;;;7.10;100.00
65758;BME280;52495;52.208;5.158;2023-12-20T03:21:01;101348.56;;;7.07;100.00
65758;BME280;52495;52.208;5.158;2023-12-20T03:23:29;101346.03;;;7.15;100.00
65758;BME280;52495;52.208;5.158;2023-12-20T03:25:56;101352.00;;;7.14;100.00
65758;BME280;52495;52.208;5.158;2023-12-20T03:28:22;101359.72;;;7.12;100.00
65758;BME280;52495;52.208;5.158;2023-12-20T03:30:50;101354.56;;;7.09;100.00
65758;BME280;52495;52.208;5.158;2023-12-20T03:33:17;101351.97;;;7.05;100.00
65758;BME280;52495;52.208;5.158;2023-12-20T03:35:44;101342.56;;;7.04;100.00
65758;BME280;52495;52.208;5.158;2023-12-20T03:38:10;101340.88;;;7.10;100.00
65758;BME280;52495;52.208;5.158;2023-12-20T03:40:37;101350.28;;;7.11;100.00
65758;BME280;52495;52.208;5.158;2023-12-20T03:43:04;101362.22;;;7.03;100.00
65758;BME280;52495;52.208;5.158;2023-12-20T03:45:31;101354.50;;;7.03;100.00
65758;BME280;52495;52.208;5.158;2023-12-20T03:47:59;101351.09;;;7.04;100.00
65758;BME280;52495;52.208;5.158;2023-12-20T03:50:26;101356.22;;;7.04;100.00
65758;BME280;52495;52.208;5.158;2023-12-20T03:52:53;101363.97;;;7.09;100.00
65758;BME280;52495;52.208;5.158;2023-12-20T03:55:19;101367.38;;;7.06;100.00
65758;BME280;52495;52.208;5.158;2023-12-20T03:57:46;101373.38;;;7.08;100.00
65758;BME280;52495;52.208;5.158;2023-12-20T04:00:13;101373.41;;;7.11;100.00
65758;BME280;52495;52.208;5.158;2023-12-20T04:02:41;101364.81;;;7.09;100.00
65758;BME280;52495;52.208;5.158;2023-12-20T04:05:09;101364.84;;;7.12;100.00
65758;BME280;52495;52.208;5.158;2023-12-20T04:07:36;101358.88;;;7.18;100.00
65758;BME280;52495;52.208;5.158;2023-12-20T04:10:04;101346.03;;;7.18;100.00
65758;BME280;52495;52.208;5.158;2023-12-20T04:12:31;101351.19;;;7.23;100.00
65758;BME280;52495;52.208;5.158;2023-12-20T04:14:58;101342.63;;;7.14;100.00
65758;BME280;52495;52.208;5.158;2023-12-20T04:17:25;101352.03;;;7.19;100.00
65758;BME280;52495;52.208;5.158;2023-12-20T04:19:52;101344.34;;;7.20;100.00
65758;BME280;52495;52.208;5.158;2023-12-20T04:22:20;101350.31;;;7.21;100.00
65758;BME280;52495;52.208;5.158;2023-12-20T04:24:46;101346.09;;;7.24;100.00
65758;BME280;52495;52.208;5.158;2023-12-20T04:27:13;101344.38;;;7.25;100.00
65758;BME280;52495;52.208;5.158;2023-12-20T04:29:40;101334.09;;;7.25;100.00
65758;BME280;52495;52.208;5.158;2023-12-20T04:32:06;101334.91;;;7.21;100.00
65758;BME280;52495;52.208;5.158;2023-12-20T04:34:33;101344.31;;;7.19;100.00
65758;BME280;52495;52.208;5.158;2023-12-20T04:37:00;101334.09;;;7.23;100.00
65758;BME280;52495;52.208;5.158;2023-12-20T04:39:29;101338.38;;;7.24;100.00
65758;BME280;52495;52.208;5.158;2023-12-20T04:41:55;101340.88;;;7.15;100.00
65758;BME280;52495;52.208;5.158;2023-12-20T04:44:22;101339.19;;;7.17;100.00
65758;BME280;52495;52.208;5.158;2023-12-20T04:46:49;101340.94;;;7.21;100.00
65758;BME280;52495;52.208;5.158;2023-12-20T04:49:16;101339.22;;;7.26;100.00
65758;BME280;52495;52.208;5.158;2023-12-20T04:51:42;101333.22;;;7.27;100.00
65758;BME280;52495;52.208;5.158;2023-12-20T04:54:09;101331.53;;;7.28;100.00
65758;BME280;52495;52.208;5.158;2023-12-20T04:56:38;101334.09;;;7.29;100.00
65758;BME280;52495;52.208;5.158;2023-12-20T04:59:04;101329.81;;;7.25;100.00
65758;BME280;52495;52.208;5.158;2023-12-20T05:01:31;101333.25;;;7.35;100.00
65758;BME280;52495;52.208;5.158;2023-12-20T05:03:58;101325.56;;;7.34;100.00
65758;BME280;52495;52.208;5.158;2023-12-20T05:06:24;101329.00;;;7.31;100.00
65758;BME280;52495;52.208;5.158;2023-12-20T05:08:51;101330.72;;;7.37;100.00
65758;BME280;52495;52.208;5.158;2023-12-20T05:11:18;101334.13;;;7.36;100.00
65758;BME280;52495;52.208;5.158;2023-12-20T05:13:46;101336.69;;;7.37;100.00
65758;BME280;52495;52.208;5.158;2023-12-20T05:16:13;101334.16;;;7.34;100.00
65758;BME280;52495;52.208;5.158;2023-12-20T05:18:43;101339.28;;;7.37;100.00
65758;BME280;52495;52.208;5.158;2023-12-20T05:21:09;101346.13;;;7.37;100.00
65758;BME280;52495;52.208;5.158;2023-12-20T05:23:36;101342.69;;;7.32;100.00
65758;BME280;52495;52.208;5.158;2023-12-20T05:26:03;101341.84;;;7.31;100.00
65758;BME280;52495;52.208;5.158;2023-12-20T05:28:30;101333.25;;;7.35;100.00
65758;BME280;52495;52.208;5.158;2023-12-20T05:30:58;101328.16;;;7.38;100.00
65758;BME280;52495;52.208;5.158;2023-12-20T05:33:24;101330.69;;;7.35;100.00
65758;BME280;52495;52.208;5.158;2023-12-20T05:35:51;101322.13;;;7.36;100.00
65758;BME280;52495;52.208;5.158;2023-12-20T05:38:18;101323.91;;;7.42;100.00
65758;BME280;52495;52.208;5.158;2023-12-20T05:40:44;101324.75;;;7.46;100.00
65758;BME280;52495;52.208;5.158;2023-12-20T05:43:11;101316.19;;;7.42;100.00
65758;BME280;52495;52.208;5.158;2023-12-20T05:45:38;101330.75;;;7.40;100.00
65758;BME280;52495;52.208;5.158;2023-12-20T05:48:06;101322.13;;;7.36;100.00
65758;BME280;52495;52.208;5.158;2023-12-20T05:50:33;101323.00;;;7.38;100.00
65758;BME280;52495;52.208;5.158;2023-12-20T05:53:01;101321.31;;;7.40;100.00
65758;BME280;52495;52.208;5.158;2023-12-20T05:55:27;101323.03;;;7.43;100.00
65758;BME280;52495;52.208;5.158;2023-12-20T05:57:54;101324.75;;;7.46;100.00
65758;BME280;52495;52.208;5.158;2023-12-20T06:00:20;101319.63;;;7.46;100.00
65758;BME280;52495;52.208;5.158;2023-12-20T06:02:47;101323.03;;;7.46;100.00
65758;BME280;52495;52.208;5.158;2023-12-20T06:05:15;101320.47;;;7.49;100.00
65758;BME280;52495;52.208;5.158;2023-12-20T06:07:42;101323.94;;;7.54;100.00
65758;BME280;52495;52.208;5.158;2023-12-20T06:10:10;101320.50;;;7.54;100.00
65758;BME280;52495;52.208;5.158;2023-12-20T06:12:37;101325.63;;;7.52;100.00
65758;BME280;52495;52.208;5.158;2023-12-20T06:15:04;101335.91;;;7.49;100.00
65758;BME280;52495;52.208;5.158;2023-12-20T06:17:31;101316.22;;;7.50;100.00
65758;BME280;52495;52.208;5.158;2023-12-20T06:19:58;101316.22;;;7.56;100.00
65758;BME280;52495;52.208;5.158;2023-12-20T06:22:26;101309.34;;;7.55;100.00
65758;BME280;52495;52.208;5.158;2023-12-20T06:24:53;101312.78;;;7.57;100.00
65758;BME280;52495;52.208;5.158;2023-12-20T06:27:20;101318.78;;;7.60;100.00
65758;BME280;52495;52.208;5.158;2023-12-20T06:29:46;101321.38;;;7.60;100.00
65758;BME280;52495;52.208;5.158;2023-12-20T06:32:13;101321.34;;;7.56;100.00
65758;BME280;52495;52.208;5.158;2023-12-20T06:34:40;101317.09;;;7.59;100.00
65758;BME280;52495;52.208;5.158;2023-12-20T06:37:07;101319.69;;;7.64;100.00
65758;BME280;52495;52.208;5.158;2023-12-20T06:39:35;101311.94;;;7.58;100.00
65758;BME280;52495;52.208;5.158;2023-12-20T06:42:03;101315.38;;;7.60;100.00
65758;BME280;52495;52.208;5.158;2023-12-20T06:44:29;101311.94;;;7.63;100.00
65758;BME280;52495;52.208;5.158;2023-12-20T06:46:57;101310.25;;;7.68;100.00
65758;BME280;52495;52.208;5.158;2023-12-20T06:49:23;101316.25;;;7.65;100.00
65758;BME280;52495;52.208;5.158;2023-12-20T06:51:50;101306.84;;;7.67;100.00
65758;BME280;52495;52.208;5.158;2023-12-20T06:54:17;101309.41;;;7.69;100.00
65758;BME280;52495;52.208;5.158;2023-12-20T06:56:45;101298.28;;;7.70;100.00
65758;BME280;52495;52.208;5.158;2023-12-20T06:59:12;101305.94;;;7.60;100.00
65758;BME280;52495;52.208;5.158;2023-12-20T07:01:38;101303.38;;;7.60;100.00
65758;BME280;52495;52.208;5.158;2023-12-20T07:04:05;101316.25;;;7.67;100.00
65758;BME280;52495;52.208;5.158;2023-12-20T07:06:32;101298.28;;;7.76;100.00
65758;BME280;52495;52.208;5.158;2023-12-20T07:08:59;101300.84;;;7.71;100.00
65758;BME280;52495;52.208;5.158;2023-12-20T07:11:26;101306.81;;;7.70;100.00
65758;BME280;52495;52.208;5.158;2023-12-20T07:13:54;101299.13;;;7.73;100.00
65758;BME280;52495;52.208;5.158;2023-12-20T07:16:21;101295.69;;;7.71;100.00
65758;BME280;52495;52.208;5.158;2023-12-20T07:18:48;101285.41;;;7.71;100.00
65758;BME280;52495;52.208;5.158;2023-12-20T07:21:15;101296.56;;;7.73;100.00
65758;BME280;52495;52.208;5.158;2023-12-20T07:23:42;101285.44;;;7.73;100.00
65758;BME280;52495;52.208;5.158;2023-12-20T07:26:09;101283.72;;;7.73;100.00
65758;BME280;52495;52.208;5.158;2023-12-20T07:28:37;101281.13;;;7.69;100.00
65758;BME280;52495;52.208;5.158;2023-12-20T07:31:05;101286.28;;;7.77;100.00
65758;BME280;52495;52.208;5.158;2023-12-20T07:33:32;101276.84;;;7.75;100.00
65758;BME280;52495;52.208;5.158;2023-12-20T07:35:59;101271.72;;;7.72;100.00
65758;BME280;52495;52.208;5.158;2023-12-20T07:38:26;101281.13;;;7.73;100.00
65758;BME280;52495;52.208;5.158;2023-12-20T07:40:53;101280.28;;;7.70;100.00
65758;BME280;52495;52.208;5.158;2023-12-20T07:43:20;101288.00;;;7.74;100.00
65758;BME280;52495;52.208;5.158;2023-12-20T07:45:47;101288.84;;;7.70;100.00
65758;BME280;52495;52.208;5.158;2023-12-20T07:48:15;101305.13;;;7.72;100.00
65758;BME280;52495;52.208;5.158;2023-12-20T07:50:41;101303.41;;;7.67;100.00
65758;BME280;52495;52.208;5.158;2023-12-20T07:53:08;101305.13;;;7.71;100.00
65758;BME280;52495;52.208;5.158;2023-12-20T07:55:35;101303.44;;;7.73;100.00
65758;BME280;52495;52.208;5.158;2023-12-20T07:58:02;101303.41;;;7.74;100.00
65758;BME280;52495;52.208;5.158;2023-12-20T08:00:30;101306.84;;;7.73;100.00
65758;BME280;52495;52.208;5.158;2023-12-20T08:02:57;101307.69;;;7.75;100.00
65758;BME280;52495;52.208;5.158;2023-12-20T08:05:25;101328.28;;;7.82;100.00
65758;BME280;52495;52.208;5.158;2023-12-20T08:07:52;101323.13;;;7.77;100.00
65758;BME280;52495;52.208;5.158;2023-12-20T08:10:19;101328.28;;;7.79;100.00
65758;BME280;52495;52.208;5.158;2023-12-20T08:12:46;101322.28;;;7.80;100.00
65758;BME280;52495;52.208;5.158;2023-12-20T08:15:13;101317.13;;;7.78;100.00
65758;BME280;52495;52.208;5.158;2023-12-20T08:17:39;101315.44;;;7.83;100.00
65758;BME280;52495;52.208;5.158;2023-12-20T08:20:07;101309.44;;;7.80;100.00
65758;BME280;52495;52.208;5.158;2023-12-20T08:22:35;101314.59;;;7.83;100.00
65758;BME280;52495;52.208;5.158;2023-12-20T08:25:02;101315.44;;;7.86;100.00
65758;BME280;52495;52.208;5.158;2023-12-20T08:27:29;101307.72;;;7.88;100.00
65758;BME280;52495;52.208;5.158;2023-12-20T08:29:57;101303.44;;;7.88;100.00
65758;BME280;52495;52.208;5.158;2023-12-20T08:32:25;101300.03;;;7.89;100.00
65758;BME280;52495;52.208;5.158;2023-12-20T08:34:52;101306.03;;;7.93;100.00
65758;BME280;52495;52.208;5.158;2023-12-20T08:37:18;101311.16;;;7.93;100.00
65758;BME280;52495;52.208;5.158;2023-12-20T08:39:46;101289.72;;;7.96;100.00
65758;BME280;52495;52.208;5.158;2023-12-20T08:42:13;101296.59;;;7.98;100.00
65758;BME280;52495;52.208;5.158;2023-12-20T08:44:40;101305.19;;;7.97;100.00
65758;BME280;52495;52.208;5.158;2023-12-20T08:47:07;101314.59;;;7.97;100.00
65758;BME280;52495;52.208;5.158;2023-12-20T08:49:34;101308.59;;;7.98;100.00
65758;BME280;52495;52.208;5.158;2023-12-20T08:52:00;101304.31;;;8.03;100.00
65758;BME280;52495;52.208;5.158;2023-12-20T08:54:27;101306.03;;;7.99;100.00
65758;BME280;52495;52.208;5.158;2023-12-20T08:56:55;101310.31;;;7.99;100.00
65758;BME280;52495;52.208;5.158;2023-12-20T08:59:22;101306.03;;;7.98;100.00
65758;BME280;52495;52.208;5.158;2023-12-20T09:01:49;101315.47;;;7.97;100.00
65758;BME280;52495;52.208;5.158;2023-12-20T09:04:19;101309.47;;;8.01;100.00
65758;BME280;52495;52.208;5.158;2023-12-20T09:06:46;101301.75;;;8.03;100.00
65758;BME280;52495;52.208;5.158;2023-12-20T09:09:13;101300.03;;;8.05;100.00
65758;BME280;52495;52.208;5.158;2023-12-20T09:11:40;101302.59;;;8.07;100.00
65758;BME280;52495;52.208;5.158;2023-12-20T09:14:08;101300.03;;;8.07;100.00
65758;BME280;52495;52.208;5.158;2023-12-20T09:16:35;101299.16;;;8.15;100.00
65758;BME280;52495;52.208;5.158;2023-12-20T09:19:02;101296.59;;;8.12;100.00
65758;BME280;52495;52.208;5.158;2023-12-20T09:21:29;101298.34;;;8.15;100.00
65758;BME280;52495;52.208;5.158;2023-12-20T09:23:55;101288.03;;;8.12;100.00
65758;BME280;52495;52.208;5.158;2023-12-20T09:26:22;101286.31;;;8.18;100.00
65758;BME280;52495;52.208;5.158;2023-12-20T09:28:49;101294.03;;;8.20;100.00
65758;BME280;52495;52.208;5.158;2023-12-20T09:31:17;101291.47;;;8.22;100.00
65758;BME280;52495;52.208;5.158;2023-12-20T09:33:43;101288.88;;;8.26;100.00
65758;BME280;52495;52.208;5.158;2023-12-20T09:36:10;101299.16;;;8.34;100.00
65758;BME280;52495;52.208;5.158;2023-12-20T09:38:37;101303.47;;;8.30;100.00
65758;BME280;52495;52.208;5.158;2023-12-20T09:41:04;101299.19;;;8.32;100.00
65758;BME280;52495;52.208;5.158;2023-12-20T09:43:34;101294.03;;;8.34;100.00
65758;BME280;52495;52.208;5.158;2023-12-20T09:46:05;101297.47;;;8.34;100.00
65758;BME280;52495;52.208;5.158;2023-12-20T09:48:34;101298.34;;;8.33;100.00
65758;BME280;52495;52.208;5.158;2023-12-20T09:51:03;101300.03;;;8.41;100.00
65758;BME280;52495;52.208;5.158;2023-12-20T09:53:30;101307.75;;;8.41;100.00
65758;BME280;52495;52.208;5.158;2023-12-20T09:56:00;101300.88;;;8.46;100.00
65758;BME280;52495;52.208;5.158;2023-12-20T09:58:26;101319.75;;;8.46;100.00
65758;BME280;52495;52.208;5.158;2023-12-20T10:00:54;101312.88;;;8.44;100.00
65758;BME280;52495;52.208;5.158;2023-12-20T10:03:24;101312.06;;;8.43;100.00
65758;BME280;52495;52.208;5.158;2023-12-20T10:05:54;101314.59;;;8.42;100.00
65758;BME280;52495;52.208;5.158;2023-12-20T10:08:24;101317.19;;;8.42;100.00
65758;BME280;52495;52.208;5.158;2023-12-20T10:10:50;101312.88;;;8.41;100.00
65758;BME280;52495;52.208;5.158;2023-12-20T10:13:17;101322.31;;;8.42;100.00
65758;BME280;52495;52.208;5.158;2023-12-20T10:15:44;101300.03;;;8.44;100.00
65758;BME280;52495;52.208;5.158;2023-12-20T10:18:13;101321.50;;;8.49;100.00
65758;BME280;52495;52.208;5.158;2023-12-20T10:20:41;101315.47;;;8.56;100.00
65758;BME280;52495;52.208;5.158;2023-12-20T10:23:10;101312.94;;;8.61;100.00
65758;BME280;52495;52.208;5.158;2023-12-20T10:25:39;101312.91;;;8.56;100.00
65758;BME280;52495;52.208;5.158;2023-12-20T10:28:11;101306.91;;;8.56;100.00
65758;BME280;52495;52.208;5.158;2023-12-20T10:30:38;101307.75;;;8.56;100.00
65758;BME280;52495;52.208;5.158;2023-12-20T10:33:06;101303.44;;;8.63;100.00
65758;BME280;52495;52.208;5.158;2023-12-20T10:35:33;101291.44;;;8.65;100.00
65758;BME280;52495;52.208;5.158;2023-12-20T10:38:03;101302.63;;;8.65;100.00
65758;BME280;52495;52.208;5.158;2023-12-20T10:40:34;101289.75;;;8.69;100.00
65758;BME280;52495;52.208;5.158;2023-12-20T10:43:03;101287.16;;;8.70;100.00
65758;BME280;52495;52.208;5.158;2023-12-20T10:45:29;101287.19;;;8.58;100.00
65758;BME280;52495;52.208;5.158;2023-12-20T10:47:57;101288.00;;;8.66;100.00
65758;BME280;52495;52.208;5.158;2023-12-20T10:50:26;101288.84;;;8.73;100.00
65758;BME280;52495;52.208;5.158;2023-12-20T10:52:54;101286.28;;;8.73;100.00
65758;BME280;52495;52.208;5.158;2023-12-20T10:55:22;101284.56;;;8.78;100.00
65758;BME280;52495;52.208;5.158;2023-12-20T10:57:51;101284.56;;;8.72;100.00
65758;BME280;52495;52.208;5.158;2023-12-20T11:00:18;101282.88;;;8.64;100.00
65758;BME280;52495;52.208;5.158;2023-12-20T11:02:45;101269.13;;;8.72;100.00
65758;BME280;52495;52.208;5.158;2023-12-20T11:05:24;101271.69;;;8.81;100.00
65758;BME280;52495;52.208;5.158;2023-12-20T11:07:56;101281.97;;;8.87;100.00
65758;BME280;52495;52.208;5.158;2023-12-20T11:10:26;101275.06;;;8.92;100.00
65758;BME280;52495;52.208;5.158;2023-12-20T11:13:01;101277.63;;;8.95;100.00
65758;BME280;52495;52.208;5.158;2023-12-20T11:15:35;101276.78;;;9.00;100.00
65758;BME280;52495;52.208;5.158;2023-12-20T11:18:04;101260.44;;;8.99;100.00
65758;BME280;52495;52.208;5.158;2023-12-20T11:20:36;101257.84;;;9.05;100.00
65758;BME280;52495;52.208;5.158;2023-12-20T11:23:04;101259.59;;;9.05;100.00
65758;BME280;52495;52.208;5.158;2023-12-20T11:25:46;101263.88;;;9.01;100.00
65758;BME280;52495;52.208;5.158;2023-12-20T11:28:15;101289.59;;;9.06;100.00
65758;BME280;52495;52.208;5.158;2023-12-20T11:30:51;101272.47;;;8.99;100.00
65758;BME280;52495;52.208;5.158;2023-12-20T11:33:23;101257.03;;;9.02;100.00
65758;BME280;52495;52.208;5.158;2023-12-20T11:35:50;101271.63;;;8.93;100.00
65758;BME280;52495;52.208;5.158;2023-12-20T11:38:17;101256.16;;;9.01;100.00
65758;BME280;52495;52.208;5.158;2023-12-20T11:40:44;101257.84;;;9.08;100.00
65758;BME280;52495;52.208;5.158;2023-12-20T11:43:10;101251.00;;;9.03;100.00
65758;BME280;52495;52.208;5.158;2023-12-20T11:45:49;101248.41;;;9.04;100.00
65758;BME280;52495;52.208;5.158;2023-12-20T11:48:17;101237.28;;;9.01;100.00
65758;BME280;52495;52.208;5.158;2023-12-20T11:50:45;101240.66;;;9.09;100.00
65758;BME280;52495;52.208;5.158;2023-12-20T11:53:11;101224.38;;;9.08;100.00
65758;BME280;52495;52.208;5.158;2023-12-20T11:55:38;101222.66;;;9.04;100.00
65758;BME280;52495;52.208;5.158;2023-12-20T11:58:05;101234.69;;;9.01;100.00
65758;BME280;52495;52.208;5.158;2023-12-20T12:00:32;101228.69;;;9.02;100.00
65758;BME280;52495;52.208;5.158;2023-12-20T12:03:00;101226.09;;;9.00;100.00
65758;BME280;52495;52.208;5.158;2023-12-20T12:05:28;101226.97;;;9.02;100.00
65758;BME280;52495;52.208;5.158;2023-12-20T12:07:57;101233.84;;;9.00;100.00
65758;BME280;52495;52.208;5.158;2023-12-20T12:10:23;101228.66;;;9.03;100.00
65758;BME280;52495;52.208;5.158;2023-12-20T12:12:50;101234.66;;;9.08;100.00
65758;BME280;52495;52.208;5.158;2023-12-20T12:15:17;101232.97;;;9.04;100.00
65758;BME280;52495;52.208;5.158;2023-12-20T12:17:44;101237.28;;;9.04;100.00
65758;BME280;52495;52.208;5.158;2023-12-20T12:20:12;101239.84;;;9.01;100.00
65758;BME280;52495;52.208;5.158;2023-12-20T12:22:38;101234.69;;;9.05;100.00
65758;BME280;52495;52.208;5.158;2023-12-20T12:25:12;101226.13;;;9.02;100.00
65758;BME280;52495;52.208;5.158;2023-12-20T12:27:40;101223.50;;;9.13;100.00
65758;BME280;52495;52.208;5.158;2023-12-20T12:30:08;101217.50;;;9.06;100.00
65758;BME280;52495;52.208;5.158;2023-12-20T12:32:35;101201.19;;;9.05;100.00
65758;BME280;52495;52.208;5.158;2023-12-20T12:35:03;101198.56;;;9.15;100.00
65758;BME280;52495;52.208;5.158;2023-12-20T12:37:34;101195.13;;;9.17;100.00
65758;BME280;52495;52.208;5.158;2023-12-20T12:40:00;101196.84;;;9.18;100.00
65758;BME280;52495;52.208;5.158;2023-12-20T12:42:27;101199.41;;;9.21;100.00
65758;BME280;52495;52.208;5.158;2023-12-20T12:44:54;101186.50;;;9.23;100.00
65758;BME280;52495;52.208;5.158;2023-12-20T12:47:21;101192.53;;;9.20;100.00
65758;BME280;52495;52.208;5.158;2023-12-20T12:49:51;101195.13;;;9.16;100.00
65758;BME280;52495;52.208;5.158;2023-12-20T12:52:18;101194.28;;;9.14;100.00